createdAt,value
2018-11-22T00:00:35.465Z,73.80
2018-11-22T00:03:02.365Z,73.83
2018-11-22T00:05:29.591Z,73.85
2018-11-22T00:07:57.520Z,73.77
2018-11-22T00:10:24.808Z,73.76
2018-11-22T00:12:51.939Z,73.63
2018-11-22T00:15:19.722Z,73.62
2018-11-22T00:17:46.876Z,73.70
2018-11-22T00:20:13.732Z,73.63
2018-11-22T00:22:40.626Z,73.65
2018-11-22T00:25:08.932Z,73.80
2018-11-22T00:27:35.822Z,73.93
2018-11-22T00:30:02.719Z,74.07
2018-11-22T00:32:29.856Z,74.04
2018-11-22T00:34:57.465Z,74.15
2018-11-22T00:37:24.324Z,74.11
2018-11-22T00:39:51.216Z,74.10
2018-11-22T00:42:18.085Z,74.03
2018-11-22T00:44:44.962Z,74.00
2018-11-22T00:47:12.270Z,73.96
2018-11-22T00:49:39.152Z,74.04
2018-11-22T00:52:06.037Z,74.11
2018-11-22T00:54:33.313Z,74.17
2018-11-22T00:57:00.195Z,74.24
2018-11-22T00:59:27.205Z,74.29
2018-11-22T01:01:54.137Z,74.31
2018-11-22T01:04:21.009Z,74.02
2018-11-22T01:06:49.343Z,73.99
2018-11-22T01:09:15.265Z,74.04
2018-11-22T01:11:42.224Z,73.96
2018-11-22T01:14:09.357Z,73.89
2018-11-22T01:16:36.267Z,73.81
2018-11-22T01:19:03.760Z,73.84
2018-11-22T01:21:30.943Z,73.83
2018-11-22T01:23:57.915Z,73.77
2018-11-22T01:26:24.813Z,73.79
2018-11-22T01:28:51.945Z,73.75
2018-11-22T01:31:18.832Z,73.73
2018-11-22T01:33:46.143Z,73.71
2018-11-22T01:36:13.003Z,73.63
2018-11-22T01:38:39.918Z,73.50
2018-11-22T01:41:06.764Z,73.50
2018-11-22T01:43:33.635Z,73.53
2018-11-22T01:46:00.516Z,73.48
2018-11-22T01:48:27.423Z,73.38
2018-11-22T01:50:54.278Z,73.21
2018-11-22T01:53:21.195Z,73.27
2018-11-22T01:55:48.043Z,73.17
2018-11-22T01:58:14.918Z,73.18
2018-11-22T02:00:41.807Z,73.17
2018-11-22T02:03:08.689Z,73.21
2018-11-22T02:05:35.568Z,73.32
2018-11-22T02:08:02.446Z,73.37
2018-11-22T02:10:29.308Z,73.45
2018-11-22T02:12:56.158Z,73.56
2018-11-22T02:15:24.867Z,73.59
2018-11-22T02:17:51.730Z,73.58
2018-11-22T02:20:19.976Z,73.66
2018-11-22T02:22:46.888Z,73.63
2018-11-22T02:25:14.770Z,73.59
2018-11-22T02:27:41.832Z,73.67
2018-11-22T02:30:29.508Z,73.73
2018-11-22T02:32:57.819Z,73.72
2018-11-22T02:35:25.177Z,73.91
2018-11-22T02:40:45.579Z,73.94
2018-11-22T02:43:12.472Z,74.02
2018-11-22T02:45:39.402Z,74.04
2018-11-22T02:48:06.264Z,74.05
2018-11-22T02:50:33.205Z,73.78
2018-11-22T02:53:00.059Z,73.61
2018-11-22T02:55:26.931Z,73.60
2018-11-22T02:57:53.810Z,73.82
2018-11-22T03:00:41.919Z,74.04
2018-11-22T03:03:09.659Z,74.17
2018-11-22T03:05:36.537Z,74.10
2018-11-22T03:08:03.434Z,74.25
2018-11-22T03:10:30.716Z,74.45
2018-11-22T03:12:57.807Z,74.32
2018-11-22T03:15:24.842Z,74.30
2018-11-22T03:17:51.805Z,74.48
2018-11-22T03:20:18.665Z,74.47
2018-11-22T03:22:45.531Z,74.48
2018-11-22T03:25:13.961Z,74.59
2018-11-22T03:27:41.915Z,74.61
2018-11-22T03:30:29.194Z,74.51
2018-11-22T03:32:56.101Z,74.63
2018-11-22T03:35:24.459Z,74.52
2018-11-22T03:37:51.394Z,74.09
2018-11-22T03:40:19.792Z,73.99
2018-11-22T03:42:46.636Z,73.93
2018-11-22T03:45:14.321Z,73.96
2018-11-22T03:47:41.552Z,74.02
2018-11-22T03:50:09.924Z,73.92
2018-11-22T03:52:37.226Z,73.41
2018-11-22T03:55:06.113Z,73.67
2018-11-22T03:57:32.958Z,73.89
2018-11-22T03:59:59.869Z,74.01
2018-11-22T04:02:26.660Z,74.08
2018-11-22T04:04:53.542Z,74.25
2018-11-22T04:07:20.405Z,74.30
2018-11-22T04:09:47.279Z,74.37
2018-11-22T04:12:14.125Z,74.54
2018-11-22T04:14:41.009Z,74.82
2018-11-22T04:17:07.846Z,75.01
2018-11-22T04:19:34.766Z,74.90
2018-11-22T04:22:01.749Z,74.83
2018-11-22T04:24:28.629Z,74.88
2018-11-22T04:26:55.472Z,74.89
2018-11-22T04:29:22.381Z,74.70
2018-11-22T04:31:49.227Z,74.50
2018-11-22T04:34:16.478Z,74.44
2018-11-22T04:36:43.347Z,74.38
2018-11-22T04:39:10.664Z,74.37
2018-11-22T04:41:37.924Z,74.43
2018-11-22T04:44:04.835Z,74.37
2018-11-22T04:46:31.738Z,74.31
2018-11-22T04:48:58.574Z,74.23
2018-11-22T04:51:25.472Z,73.99
2018-11-22T04:53:52.339Z,74.06
2018-11-22T04:56:19.646Z,74.22
2018-11-22T04:58:46.517Z,74.47
2018-11-22T05:01:13.409Z,74.78
2018-11-22T05:03:40.273Z,74.81
2018-11-22T05:06:07.179Z,74.80
2018-11-22T05:08:34.025Z,74.62
2018-11-22T05:11:00.878Z,74.18
2018-11-22T05:13:27.794Z,74.32
2018-11-22T05:15:54.656Z,74.38
2018-11-22T05:18:21.519Z,74.39
2018-11-22T05:20:48.414Z,74.32
2018-11-22T05:23:15.284Z,74.29
2018-11-22T05:25:42.145Z,73.96
2018-11-22T05:28:09.364Z,73.85
2018-11-22T05:30:36.282Z,73.44
2018-11-22T05:33:03.591Z,73.59
2018-11-22T05:35:31.368Z,73.87
2018-11-22T05:37:58.228Z,74.18
2018-11-22T05:40:26.354Z,74.39
2018-11-22T05:42:54.326Z,74.31
2018-11-22T05:45:21.581Z,74.22
2018-11-22T05:47:48.437Z,74.24
2018-11-22T05:50:16.828Z,73.75
2018-11-22T05:52:44.467Z,73.63
2018-11-22T05:55:11.833Z,73.75
2018-11-22T05:57:38.779Z,73.64
2018-11-22T06:00:27.022Z,73.79
2018-11-22T06:02:54.397Z,73.77
2018-11-22T06:05:23.054Z,73.26
2018-11-22T06:07:50.096Z,73.32
2018-11-22T06:10:18.622Z,73.54
2018-11-22T06:12:45.926Z,73.65
2018-11-22T06:15:13.645Z,73.61
2018-11-22T06:17:41.276Z,73.20
2018-11-22T06:20:10.863Z,73.00
2018-11-22T06:22:37.828Z,73.05
2018-11-22T06:25:06.991Z,73.17
2018-11-22T06:27:33.839Z,73.00
2018-11-22T06:30:01.050Z,72.96
2018-11-22T06:32:27.931Z,72.72
2018-11-22T06:34:55.259Z,72.55
2018-11-22T06:37:22.142Z,72.92
2018-11-22T06:39:49.043Z,73.29
2018-11-22T06:42:15.933Z,73.53
2018-11-22T06:44:42.822Z,73.50
2018-11-22T06:47:10.108Z,73.34
2018-11-22T06:49:37.013Z,73.27
2018-11-22T06:52:04.281Z,73.33
2018-11-22T06:54:31.201Z,73.57
2018-11-22T06:56:58.075Z,73.26
2018-11-22T06:59:37.716Z,72.67
2018-11-22T07:02:04.611Z,72.27
2018-11-22T07:04:31.499Z,72.16
2018-11-22T07:06:58.378Z,72.38
2018-11-22T07:09:25.227Z,72.63
2018-11-22T07:11:52.139Z,72.86
2018-11-22T07:14:19.023Z,73.02
2018-11-22T07:16:45.903Z,72.62
2018-11-22T07:19:12.753Z,72.50
2018-11-22T07:21:39.656Z,72.31
2018-11-22T07:24:06.495Z,72.25
2018-11-22T07:26:33.376Z,72.01
2018-11-22T07:29:00.254Z,71.79
2018-11-22T07:31:27.134Z,71.92
2018-11-22T07:33:53.978Z,71.73
2018-11-22T07:36:20.931Z,71.79
2018-11-22T07:38:48.126Z,71.77
2018-11-22T07:41:15.033Z,71.61
2018-11-22T07:43:41.976Z,71.54
2018-11-22T07:46:09.187Z,71.09
2018-11-22T07:48:36.047Z,70.67
2018-11-22T07:51:02.957Z,70.75
2018-11-22T07:53:29.855Z,71.67
2018-11-22T07:55:56.775Z,71.59
2018-11-22T07:58:23.998Z,70.39
2018-11-22T08:00:50.836Z,69.83
2018-11-22T08:03:17.745Z,70.09
2018-11-22T08:05:44.665Z,70.22
2018-11-22T08:08:11.538Z,69.69
2018-11-22T08:10:38.473Z,69.19
2018-11-22T08:13:05.426Z,69.25
2018-11-22T08:15:33.777Z,69.32
2018-11-22T08:18:00.659Z,69.47
2018-11-22T08:20:27.704Z,69.12
2018-11-22T08:22:55.271Z,68.95
2018-11-22T08:25:23.245Z,68.67
2018-11-22T08:27:50.926Z,68.50
2018-11-22T08:30:18.404Z,68.31
2018-11-22T08:32:45.297Z,68.12
2018-11-22T08:35:12.692Z,68.51
2018-11-22T08:37:39.584Z,67.72
2018-11-22T08:40:12.585Z,67.57
2018-11-22T08:42:39.504Z,67.53
2018-11-22T08:45:07.012Z,67.32
2018-11-22T08:47:33.865Z,67.47
2018-11-22T08:50:00.770Z,67.54
2018-11-22T08:52:27.652Z,67.38
2018-11-22T08:54:54.616Z,66.54
2018-11-22T08:57:21.508Z,65.54
2018-11-22T12:17:10.758Z,56.92
2018-11-22T12:19:38.340Z,56.37
2018-11-22T12:22:05.758Z,55.90
2018-11-22T12:24:33.230Z,55.22
2018-11-22T12:27:00.858Z,54.42
2018-11-22T12:29:28.144Z,54.96
2018-11-22T12:31:57.287Z,54.79
2018-11-22T12:34:29.265Z,55.28
2018-11-22T12:37:02.265Z,55.81
2018-11-22T12:39:29.727Z,55.70
2018-11-22T12:41:57.079Z,55.46
2018-11-22T12:44:24.505Z,55.07
2018-11-22T12:46:51.882Z,55.01
2018-11-22T12:49:19.410Z,54.77
2018-11-22T12:51:46.799Z,54.71
2018-11-22T12:54:14.259Z,54.94
2018-11-22T12:56:41.657Z,55.14
2018-11-22T12:59:09.100Z,54.40
2018-11-22T13:01:36.708Z,53.56
2018-11-22T13:04:04.407Z,52.95
2018-11-22T13:06:31.956Z,53.11
2018-11-22T13:08:59.543Z,53.44
2018-11-22T13:11:27.058Z,53.34
2018-11-22T13:13:54.513Z,53.51
2018-11-22T13:16:21.931Z,54.71
2018-11-22T13:18:49.365Z,54.94
2018-11-22T13:21:16.954Z,55.34
2018-11-22T13:23:44.527Z,55.73
2018-11-22T13:26:11.912Z,55.71
2018-11-22T13:28:39.416Z,55.86
2018-11-22T13:31:06.911Z,55.05
2018-11-22T13:33:34.413Z,54.99
2018-11-22T13:36:01.861Z,53.89
2018-11-22T13:38:29.323Z,54.10
2018-11-22T13:40:56.689Z,54.50
2018-11-22T13:43:24.143Z,54.91
2018-11-22T13:45:52.054Z,55.23
2018-11-22T13:48:19.499Z,55.94
2018-11-22T13:50:47.091Z,55.04
2018-11-22T13:53:14.767Z,55.54
2018-11-22T13:55:41.980Z,56.12
2018-11-22T13:58:09.431Z,57.03
2018-11-22T14:00:36.929Z,57.12
2018-11-22T14:03:05.846Z,57.22
2018-11-22T14:05:33.408Z,57.23
2018-11-22T14:08:00.868Z,57.35
2018-11-22T14:10:28.316Z,57.74
2018-11-22T14:12:55.771Z,58.13
2018-11-22T14:15:24.790Z,58.89
2018-11-22T14:17:53.754Z,59.07
2018-11-22T14:20:24.617Z,59.23
2018-11-22T14:22:52.247Z,59.77
2018-11-22T14:25:19.824Z,59.84
2018-11-22T14:27:48.306Z,60.23
2018-11-22T14:30:17.147Z,60.45
2018-11-22T14:32:45.365Z,61.13
2018-11-22T14:35:14.164Z,61.42
2018-11-22T14:37:42.155Z,61.95
2018-11-22T14:40:15.188Z,61.73
2018-11-22T14:42:43.232Z,61.77
2018-11-22T14:45:11.994Z,61.38
2018-11-22T14:47:40.056Z,61.95
2018-11-22T14:50:11.535Z,61.80
2018-11-22T14:52:39.831Z,61.77
2018-11-22T14:55:07.926Z,62.36
2018-11-22T14:57:35.616Z,62.77
2018-11-22T15:00:03.703Z,63.40
2018-11-22T15:02:31.127Z,63.81
2018-11-22T15:04:58.527Z,64.34
2018-11-22T15:07:28.804Z,64.05
2018-11-22T15:09:53.411Z,64.40
2018-11-22T15:12:20.847Z,64.14
2018-11-22T15:14:48.318Z,63.97
2018-11-22T15:17:15.721Z,64.17
2018-11-22T15:19:43.163Z,64.58
2018-11-22T15:22:10.574Z,64.71
2018-11-22T15:24:38.171Z,65.04
2018-11-22T15:27:05.631Z,64.97
2018-11-22T15:29:33.011Z,65.15
2018-11-22T15:32:00.533Z,65.39
2018-11-22T15:34:28.030Z,65.47
2018-11-22T15:36:55.443Z,65.57
2018-11-22T15:39:22.794Z,65.60
2018-11-22T15:41:50.291Z,65.59
2018-11-22T15:44:17.723Z,65.78
2018-11-22T15:46:45.223Z,65.87
2018-11-22T15:49:12.620Z,66.33
2018-11-22T15:51:40.146Z,66.36
2018-11-22T15:54:07.518Z,66.59
2018-11-22T15:56:35.138Z,66.73
2018-11-22T15:59:02.518Z,66.87
2018-11-22T16:01:30.158Z,67.02
2018-11-22T16:03:57.608Z,66.64
2018-11-22T16:06:25.043Z,66.75
2018-11-22T16:08:52.490Z,66.55
2018-11-22T16:11:19.907Z,66.34
2018-11-22T16:13:47.515Z,66.54
2018-11-22T16:16:14.938Z,66.89
2018-11-22T16:18:42.640Z,66.91
2018-11-22T16:21:10.051Z,67.54
2018-11-22T16:23:37.533Z,68.15
2018-11-22T16:26:05.070Z,68.43
2018-11-22T16:28:32.521Z,69.00
2018-11-22T16:30:59.932Z,69.12
2018-11-22T16:33:27.349Z,69.21
2018-11-22T16:35:54.775Z,69.16
2018-11-22T16:38:22.155Z,69.59
2018-11-22T16:40:49.669Z,70.06
2018-11-22T16:43:17.100Z,70.21
2018-11-22T16:45:44.547Z,70.45
2018-11-22T16:48:13.052Z,70.79
2018-11-22T16:50:41.207Z,70.63
2018-11-22T16:53:08.623Z,70.81
2018-11-22T16:55:36.086Z,71.12
2018-11-22T16:58:04.000Z,71.50
2018-11-22T17:00:36.588Z,71.45
2018-11-22T17:03:07.805Z,71.96
2018-11-22T17:05:35.696Z,72.26
2018-11-22T17:08:04.090Z,72.53
2018-11-22T17:10:31.998Z,72.65
2018-11-22T17:13:00.498Z,72.54
2018-11-22T17:15:30.335Z,72.74
2018-11-22T17:17:58.245Z,73.10
2018-11-22T17:20:26.571Z,73.41
2018-11-22T17:22:54.495Z,74.18
2018-11-22T17:25:24.461Z,74.02
2018-11-22T17:27:53.566Z,74.54
2018-11-22T17:30:23.556Z,74.45
2018-11-22T17:32:51.128Z,74.49
2018-11-22T17:35:20.230Z,74.92
2018-11-22T17:37:47.979Z,74.98
2018-11-22T17:40:19.960Z,75.53
2018-11-22T17:42:47.409Z,75.26
2018-11-22T17:45:20.613Z,75.46
2018-11-22T17:47:48.199Z,75.55
2018-11-22T17:50:15.633Z,76.14
2018-11-22T17:52:43.585Z,76.23
2018-11-22T17:55:15.572Z,76.29
2018-11-22T17:57:43.218Z,75.45
2018-11-22T18:00:20.550Z,75.78
2018-11-22T18:02:49.284Z,76.46
2018-11-22T18:05:17.075Z,76.32
2018-11-22T18:07:44.532Z,76.66
2018-11-22T18:10:14.341Z,76.36
2018-11-22T18:12:42.986Z,77.02
2018-11-22T18:15:12.256Z,77.07
2018-11-22T18:17:39.698Z,76.64
2018-11-22T18:20:10.282Z,76.90
2018-11-22T18:22:37.982Z,76.80
2018-11-22T18:25:07.674Z,76.48
2018-11-22T18:27:35.427Z,76.44
2018-11-22T18:30:03.343Z,76.41
2018-11-22T18:32:30.809Z,76.69
2018-11-22T18:34:58.239Z,77.13
2018-11-22T18:37:25.731Z,76.93
2018-11-22T18:39:53.151Z,77.00
2018-11-22T18:42:20.682Z,76.97
2018-11-22T18:44:48.198Z,77.25
2018-11-22T18:47:16.111Z,77.01
2018-11-22T18:49:43.783Z,77.37
2018-11-22T18:52:11.399Z,77.12
2018-11-22T18:54:39.112Z,77.23
2018-11-22T18:57:06.583Z,77.47
2018-11-22T18:59:34.049Z,77.49
2018-11-22T19:02:01.479Z,77.40
2018-11-22T19:04:28.972Z,77.43
2018-11-22T19:06:56.533Z,77.55
2018-11-22T19:09:23.970Z,77.88
2018-11-22T19:11:51.432Z,77.98
2018-11-22T19:14:19.012Z,77.50
2018-11-22T19:16:46.521Z,77.76
2018-11-22T19:19:14.086Z,77.47
2018-11-22T19:21:41.566Z,78.10
2018-11-22T19:24:08.980Z,77.96
2018-11-22T19:26:36.458Z,77.67
2018-11-22T19:29:03.944Z,77.87
2018-11-22T19:31:31.420Z,78.09
2018-11-22T19:33:58.798Z,77.89
2018-11-22T19:36:26.834Z,78.33
2018-11-22T19:38:54.264Z,77.92
2018-11-22T19:41:21.797Z,78.37
2018-11-22T19:43:49.300Z,78.57
2018-11-22T19:46:16.768Z,78.75
2018-11-22T19:48:44.225Z,78.91
2018-11-22T19:51:11.740Z,79.25
2018-11-22T19:53:39.141Z,79.42
2018-11-22T19:56:06.580Z,79.33
2018-11-22T19:58:34.010Z,79.37
2018-11-22T20:01:07.533Z,79.53
2018-11-22T20:03:28.997Z,79.66
2018-11-22T20:05:56.498Z,79.75
2018-11-22T20:08:23.920Z,80.08
2018-11-22T20:10:51.305Z,80.19
2018-11-22T20:13:18.758Z,80.04
2018-11-22T20:15:46.337Z,80.12
2018-11-22T20:18:13.800Z,80.30
2018-11-22T20:20:41.403Z,80.21
2018-11-22T20:23:08.914Z,79.37
2018-11-22T20:25:36.369Z,79.29
2018-11-22T20:28:04.240Z,78.83
2018-11-22T20:30:32.942Z,78.70
2018-11-22T20:33:00.762Z,79.37
2018-11-22T20:35:29.262Z,79.75
2018-11-22T20:37:56.741Z,79.86
2018-11-22T20:40:25.396Z,80.25
2018-11-22T20:42:52.849Z,80.18
2018-11-22T20:45:21.640Z,80.27
2018-11-22T20:47:50.856Z,80.50
2018-11-22T20:50:19.775Z,80.54
2018-11-22T20:52:47.205Z,80.69
2018-11-22T20:55:21.906Z,80.95
2018-11-22T20:57:51.025Z,81.09
2018-11-22T21:00:19.791Z,80.84
2018-11-22T21:02:47.236Z,80.95
2018-11-22T21:05:15.637Z,81.24
2018-11-22T21:07:43.829Z,81.05
2018-11-22T21:10:12.823Z,80.72
2018-11-22T21:12:40.883Z,80.96
2018-11-22T21:15:12.452Z,80.60
2018-11-22T21:17:40.648Z,80.68
2018-11-22T21:20:09.490Z,80.62
2018-11-22T21:22:37.162Z,80.96
2018-11-22T21:25:06.562Z,80.63
2018-11-22T21:27:34.008Z,80.56
2018-11-22T21:30:01.786Z,80.65
2018-11-22T21:32:29.224Z,80.59
2018-11-22T21:34:56.624Z,80.66
2018-11-22T21:37:24.158Z,80.87
2018-11-22T21:39:51.768Z,80.68
2018-11-22T21:42:19.255Z,80.84
2018-11-22T21:44:46.688Z,80.75
2018-11-22T21:47:14.158Z,80.86
2018-11-22T21:49:41.554Z,81.24
2018-11-22T21:52:09.112Z,81.27
2018-11-22T21:54:36.653Z,81.34
2018-11-22T21:57:04.596Z,81.40
2018-11-22T21:59:32.201Z,81.51
2018-11-22T22:01:59.862Z,81.61
2018-11-22T22:04:27.306Z,81.73
2018-11-22T22:06:54.776Z,81.46
2018-11-22T22:09:22.229Z,81.40
2018-11-22T22:11:49.789Z,81.76
2018-11-22T22:14:17.212Z,82.10
2018-11-22T22:16:44.753Z,81.84
2018-11-22T22:19:12.193Z,82.17
2018-11-22T22:21:39.624Z,81.93
2018-11-22T22:24:07.076Z,82.24
2018-11-22T22:26:34.792Z,82.31
2018-11-22T22:29:02.238Z,82.02
2018-11-22T22:31:29.760Z,82.09
2018-11-22T22:33:57.150Z,81.66
2018-11-22T22:36:24.664Z,81.76
2018-11-22T22:38:52.098Z,81.54
2018-11-22T22:41:19.562Z,81.59
2018-11-22T22:43:46.961Z,81.87
2018-11-22T22:46:14.412Z,81.68
2018-11-22T22:48:41.805Z,81.60
2018-11-22T22:51:09.232Z,82.12
2018-11-22T22:53:36.758Z,82.03
2018-11-22T22:56:04.620Z,82.17
2018-11-22T22:58:32.058Z,82.37
2018-11-22T23:01:02.234Z,82.77
2018-11-22T23:03:30.361Z,82.41
2018-11-22T23:05:57.830Z,82.39
2018-11-22T23:08:25.475Z,82.48
2018-11-22T23:10:52.886Z,82.40
2018-11-22T23:13:20.305Z,82.37
2018-11-22T23:15:47.810Z,81.51
2018-11-22T23:18:15.340Z,81.27
2018-11-22T23:20:42.858Z,80.24
2018-11-22T23:23:10.372Z,79.85
2018-11-22T23:25:37.940Z,79.21
2018-11-22T23:28:05.588Z,78.62
2018-11-22T23:30:34.227Z,78.29
2018-11-22T23:33:03.174Z,78.35
2018-11-22T23:35:30.625Z,77.97
2018-11-22T23:37:58.158Z,78.07
2018-11-22T23:40:26.951Z,77.95
2018-11-22T23:42:54.386Z,78.26
2018-11-22T23:45:23.118Z,78.55
2018-11-22T23:47:50.764Z,78.61
2018-11-22T23:50:19.650Z,78.45
2018-11-22T23:52:48.377Z,79.36
2018-11-22T23:55:15.995Z,79.79
2018-11-22T23:57:43.669Z,80.30
